Time;durP1;ratioP1;P1;durP2;ratioP2;P2;SDS_P1;SDS_P2;PMS_P1;PMS_P2;Temp;Humidity;BMP_temperature;BMP_pressure;BME280_temperature;BME280_humidity;BME280_pressure;Samples;Min_cycle;Max_cycle;Signal;HPM_P1;HPM_P2
2021/11/07 00:00:27;;;;;;;4.03;1.75;;;13.00;82.10;;;;;;4990816;28;20382;-76
2021/11/07 00:06:26;;;;;;;4.25;1.75;;;12.90;82.00;;;;;;4987021;28;20050;-76
2021/11/07 00:15:45;;;;;;;5.10;2.30;;;12.90;82.10;;;;;;4988318;28;20050;-75
2021/11/07 00:18:16;;;;;;;4.95;1.73;;;12.80;81.90;;;;;;4988705;28;20034;-75
2021/11/07 00:20:54;;;;;;;5.13;2.30;;;12.80;82.00;;;;;;4988675;28;20062;-76
2021/11/07 00:25:52;;;;;;;4.78;2.10;;;12.80;82.00;;;;;;5006388;28;20037;-75
2021/11/07 00:28:32;;;;;;;6.57;2.45;;;12.70;81.80;;;;;;5006938;28;20025;-76
2021/11/07 00:31:21;;;;;;;4.32;2.20;;;12.70;81.90;;;;;;5008081;28;20069;-76
2021/11/07 00:36:37;;;;;;;8.20;2.28;;;12.60;81.70;;;;;;4988460;28;20041;-76
2021/11/07 00:41:49;;;;;;;10.35;2.80;;;12.50;81.50;;;;;;4988049;28;20038;-76
2021/11/07 00:44:40;;;;;;;6.93;2.88;;;12.60;81.70;;;;;;5003228;28;20125;-75
2021/11/07 00:48:08;;;;;;;8.68;2.53;;;12.50;81.60;;;;;;4988328;28;20034;-76
2021/11/07 00:50:07;;;;;;;9.35;3.13;;;12.50;81.60;;;;;;4977733;28;20137;-76
2021/11/07 00:58:22;;;;;;;5.30;1.88;;;12.40;81.50;;;;;;4975358;28;20041;-76
2021/11/07 01:00:52;;;;;;;11.13;2.55;;;12.40;81.50;;;;;;4987468;28;20083;-76
2021/11/07 01:03:20;;;;;;;10.48;3.60;;;12.40;81.60;;;;;;4994060;28;20030;-76
2021/11/07 01:05:46;;;;;;;4.95;2.03;;;12.40;81.60;;;;;;5007757;28;20030;-75
2021/11/07 01:08:12;;;;;;;5.30;2.97;;;12.40;81.70;;;;;;5007526;28;20030;-78
2021/11/07 01:10:38;;;;;;;7.75;2.63;;;12.40;81.70;;;;;;5006580;28;20204;-76
2021/11/07 01:13:04;;;;;;;8.55;2.33;;;12.40;81.70;;;;;;5002146;28;20038;-77
2021/11/07 01:15:31;;;;;;;6.90;2.20;;;12.40;81.80;;;;;;4987088;28;20047;-76
2021/11/07 01:17:58;;;;;;;6.60;2.20;;;12.30;81.60;;;;;;4987340;28;20390;-75
2021/11/07 01:20:27;;;;;;;6.35;2.08;;;12.30;81.70;;;;;;5006872;28;20030;-77
2021/11/07 01:23:00;;;;;;;6.07;2.67;;;12.30;81.70;;;;;;5003866;28;20508;-77
2021/11/07 01:25:30;;;;;;;8.30;2.97;;;12.30;81.70;;;;;;4987728;28;20508;-76
2021/11/07 01:27:58;;;;;;;9.02;2.28;;;12.30;81.70;;;;;;4986927;28;20042;-75
2021/11/07 01:30:26;;;;;;;9.95;2.47;;;12.30;81.70;;;;;;5006429;28;20432;-76
2021/11/07 01:33:04;;;;;;;7.07;2.17;;;12.30;81.70;;;;;;5004151;28;20038;-76
2021/11/07 01:35:46;;;;;;;10.13;2.10;;;12.30;81.70;;;;;;4986930;28;20398;-75
2021/11/07 01:38:18;;;;;;;12.73;2.25;;;12.30;81.70;;;;;;5002574;28;20117;-75
2021/11/07 01:40:58;;;;;;;12.60;3.25;;;12.30;81.60;;;;;;4987341;28;20031;-76
2021/11/07 01:43:24;;;;;;;10.07;3.10;;;12.30;81.60;;;;;;4994041;28;20663;-76
2021/11/07 01:45:58;;;;;;;9.10;2.38;;;12.20;81.40;;;;;;5006891;28;20466;-76
2021/11/07 01:48:29;;;;;;;7.80;2.08;;;12.20;81.40;;;;;;4970849;28;20042;-77
2021/11/07 01:50:57;;;;;;;6.55;2.17;;;12.20;81.40;;;;;;4987460;28;20084;-75
2021/11/07 01:55:59;;;;;;;9.02;2.35;;;12.20;81.40;;;;;;4987713;28;20425;-76
2021/11/07 01:58:28;;;;;;;9.88;4.15;;;12.20;81.50;;;;;;4990036;28;20038;-77
2021/11/07 02:00:55;;;;;;;9.73;2.13;;;12.20;81.50;;;;;;5006507;28;20473;-75
2021/11/07 02:03:22;;;;;;;7.50;2.15;;;12.20;81.50;;;;;;5015108;28;20034;-75
2021/11/07 02:05:48;;;;;;;6.07;2.28;;;12.20;81.50;;;;;;4986625;28;20037;-74
2021/11/07 02:08:16;;;;;;;8.60;2.40;;;12.10;81.30;;;;;;4987150;28;20033;-76
2021/11/07 02:10:43;;;;;;;7.65;2.75;;;12.10;81.40;;;;;;4986976;28;20039;-75
2021/11/07 02:13:09;;;;;;;7.35;1.90;;;12.10;81.30;;;;;;4986767;28;20033;-75
2021/11/07 02:15:36;;;;;;;9.10;2.22;;;12.10;81.30;;;;;;4986632;28;20050;-75
2021/11/07 02:18:02;;;;;;;7.78;2.30;;;12.10;81.30;;;;;;5018727;28;20071;-74
2021/11/07 02:20:34;;;;;;;11.32;3.25;;;12.10;81.40;;;;;;4986489;28;20034;-74
2021/11/07 02:23:05;;;;;;;8.82;3.45;;;12.10;81.40;;;;;;4986974;28;20490;-75
2021/11/07 02:25:31;;;;;;;7.72;3.38;;;12.10;81.30;;;;;;4987034;28;20318;-75
2021/11/07 02:27:58;;;;;;;9.88;3.40;;;12.10;81.30;;;;;;5002945;28;20474;-76
2021/11/07 02:30:24;;;;;;;7.78;2.33;;;12.10;81.30;;;;;;4989954;28;20080;-77
2021/11/07 02:32:50;;;;;;;11.57;2.70;;;12.10;81.30;;;;;;4991802;28;20489;-75
2021/11/07 02:35:17;;;;;;;10.25;3.03;;;12.10;81.30;;;;;;4992277;28;20545;-77
2021/11/07 02:37:44;;;;;;;7.38;2.03;;;12.10;81.20;;;;;;4991675;28;20180;-77
2021/11/07 02:40:12;;;;;;;8.45;2.50;;;12.10;81.20;;;;;;5008494;28;20030;-75
2021/11/07 02:42:43;;;;;;;8.98;2.88;;;12.10;81.20;;;;;;5026505;28;20113;-76
2021/11/07 02:45:15;;;;;;;7.47;2.13;;;12.10;81.20;;;;;;5008890;28;20025;-77
2021/11/07 02:47:41;;;;;;;8.65;2.35;;;12.10;81.20;;;;;;4994650;28;20038;-76
2021/11/07 02:50:08;;;;;;;8.05;2.38;;;12.10;81.10;;;;;;4993489;28;20058;-77
2021/11/07 02:52:34;;;;;;;5.78;2.28;;;12.10;81.10;;;;;;4995489;28;20040;-76
2021/11/07 02:55:01;;;;;;;8.45;2.03;;;12.10;81.10;;;;;;4994492;28;20156;-76
2021/11/07 02:57:27;;;;;;;10.25;2.38;;;12.10;81.10;;;;;;4994820;28;20030;-76
2021/11/07 03:00:02;;;;;;;9.48;2.28;;;12.00;80.80;;;;;;4992818;28;20038;-76
2021/11/07 03:02:29;;;;;;;7.45;1.90;;;12.00;80.80;;;;;;4995026;28;20030;-77
2021/11/07 03:04:56;;;;;;;10.15;2.80;;;12.00;80.90;;;;;;4994671;28;20041;-76
2021/11/07 03:07:22;;;;;;;8.82;2.75;;;12.00;80.90;;;;;;4994855;28;20062;-78
2021/11/07 03:09:49;;;;;;;5.75;2.45;;;12.00;80.90;;;;;;4994360;28;20035;-78
2021/11/07 03:12:15;;;;;;;6.88;2.47;;;12.00;80.90;;;;;;4994634;28;20072;-78
2021/11/07 03:14:45;;;;;;;8.45;2.28;;;12.00;80.90;;;;;;4994073;28;20065;-78
2021/11/07 03:17:13;;;;;;;6.75;2.05;;;12.00;80.90;;;;;;4994439;28;20461;-77
2021/11/07 03:19:40;;;;;;;7.45;2.30;;;11.90;80.70;;;;;;4994051;28;20030;-78
2021/11/07 03:22:10;;;;;;;7.95;2.88;;;12.00;80.90;;;;;;4994341;28;20092;-78
2021/11/07 03:24:38;;;;;;;11.15;2.53;;;12.00;81.00;;;;;;4994238;28;20042;-78
2021/11/07 03:27:17;;;;;;;7.80;2.58;;;11.90;80.70;;;;;;4992926;28;20036;-78
2021/11/07 03:29:49;;;;;;;8.18;2.45;;;11.90;80.60;;;;;;5008521;28;20462;-78
2021/11/07 03:32:21;;;;;;;6.43;2.67;;;11.90;80.60;;;;;;4994224;28;20121;-79
2021/11/07 03:34:51;;;;;;;6.35;2.45;;;11.90;80.60;;;;;;4994018;28;20453;-78
2021/11/07 03:37:25;;;;;;;6.97;2.35;;;11.90;80.60;;;;;;4993739;28;20037;-78
2021/11/07 03:39:53;;;;;;;11.73;2.17;;;11.90;80.50;;;;;;4992768;28;20026;-78
2021/11/07 03:42:21;;;;;;;7.22;2.40;;;11.80;80.40;;;;;;4994174;28;20081;-77
2021/11/07 03:44:48;;;;;;;9.60;3.42;;;11.80;80.30;;;;;;4993577;28;20041;-77
2021/11/07 03:47:14;;;;;;;10.88;3.17;;;11.80;80.40;;;;;;4992348;28;20030;-77
2021/11/07 03:49:41;;;;;;;13.43;3.95;;;11.80;80.40;;;;;;4993631;28;20085;-78
2021/11/07 03:52:09;;;;;;;6.65;2.63;;;11.80;80.40;;;;;;4993917;28;20035;-76
2021/11/07 03:54:36;;;;;;;6.95;2.33;;;11.70;80.20;;;;;;4992733;28;20046;-77
2021/11/07 03:57:04;;;;;;;7.38;2.85;;;11.70;80.10;;;;;;4993985;28;20038;-77
2021/11/07 03:59:31;;;;;;;9.40;3.17;;;11.70;80.10;;;;;;4993083;28;20030;-76
2021/11/07 04:01:58;;;;;;;6.18;1.90;;;11.70;80.10;;;;;;4993990;28;20034;-76
2021/11/07 04:04:24;;;;;;;6.20;2.53;;;11.70;80.10;;;;;;4993719;28;20090;-76
2021/11/07 04:06:51;;;;;;;9.60;3.15;;;11.60;79.90;;;;;;4993335;28;20027;-77
2021/11/07 04:09:19;;;;;;;8.65;2.85;;;11.60;79.90;;;;;;5008441;28;20030;-77
2021/11/07 04:11:45;;;;;;;8.40;2.65;;;11.60;79.90;;;;;;4992262;28;20060;-77
2021/11/07 04:14:12;;;;;;;11.38;2.30;;;11.50;79.70;;;;;;4993299;28;20032;-77
2021/11/07 04:16:39;;;;;;;9.63;2.22;;;11.50;79.80;;;;;;4991994;28;20027;-76
2021/11/07 04:19:08;;;;;;;7.53;2.55;;;11.50;79.80;;;;;;4992944;28;20128;-77
2021/11/07 04:21:35;;;;;;;10.73;2.25;;;11.40;79.60;;;;;;5008236;28;20548;-77
2021/11/07 04:24:01;;;;;;;8.77;2.28;;;11.50;79.90;;;;;;4993423;28;20466;-77
2021/11/07 04:26:28;;;;;;;11.23;3.30;;;11.40;79.70;;;;;;4992812;28;20112;-77
2021/11/07 04:28:54;;;;;;;9.77;3.15;;;11.40;79.80;;;;;;4992862;28;20065;-77
2021/11/07 04:31:20;;;;;;;5.07;2.22;;;11.40;79.80;;;;;;4992618;28;20066;-78
2021/11/07 04:33:46;;;;;;;4.40;1.83;;;11.40;79.80;;;;;;4992978;28;20034;-77
2021/11/07 04:36:12;;;;;;;10.20;2.63;;;11.40;79.80;;;;;;4993017;28;20129;-76
2021/11/07 04:38:39;;;;;;;7.65;2.00;;;11.30;79.70;;;;;;4992589;28;20062;-75
2021/11/07 04:41:06;;;;;;;9.15;2.20;;;11.30;79.70;;;;;;4992934;28;20035;-76
2021/11/07 04:43:33;;;;;;;7.45;2.50;;;11.30;79.70;;;;;;4991187;28;20038;-77
2021/11/07 04:45:59;;;;;;;7.70;2.30;;;11.30;79.70;;;;;;4992457;28;20058;-77
2021/11/07 04:48:25;;;;;;;7.72;1.88;;;11.30;79.70;;;;;;4992841;28;20363;-78
2021/11/07 04:50:52;;;;;;;8.25;2.55;;;11.20;79.50;;;;;;5006919;28;20080;-75
2021/11/07 04:53:21;;;;;;;10.52;3.33;;;11.20;79.50;;;;;;4992747;28;20030;-78
2021/11/07 04:55:48;;;;;;;11.00;3.28;;;11.20;79.50;;;;;;4992407;28;20038;-77
2021/11/07 04:58:14;;;;;;;8.02;2.70;;;11.20;79.50;;;;;;4992391;28;20130;-77
2021/11/07 05:00:41;;;;;;;7.20;2.85;;;11.10;79.30;;;;;;4990858;28;20034;-77
2021/11/07 05:03:08;;;;;;;9.15;3.30;;;11.10;79.30;;;;;;4992414;28;20386;-77
2021/11/07 05:05:36;;;;;;;10.20;2.92;;;11.10;79.30;;;;;;4992687;28;20129;-77
2021/11/07 05:08:03;;;;;;;13.85;4.65;;;11.00;79.10;;;;;;4992760;28;20422;-77
2021/11/07 05:10:29;;;;;;;9.48;3.20;;;11.00;79.10;;;;;;4992262;28;20057;-76
2021/11/07 05:12:55;;;;;;;9.10;3.45;;;11.00;79.10;;;;;;4992051;28;20026;-77
2021/11/07 05:15:21;;;;;;;10.07;3.42;;;11.00;79.10;;;;;;4992265;28;20217;-76
2021/11/07 05:17:48;;;;;;;10.43;3.83;;;10.90;78.90;;;;;;4990710;28;20034;-79
2021/11/07 05:20:14;;;;;;;10.77;3.90;;;10.90;78.90;;;;;;4992344;28;20033;-79
2021/11/07 05:22:40;;;;;;;7.75;3.40;;;10.90;78.90;;;;;;4992226;28;20089;-79
2021/11/07 05:25:08;;;;;;;8.60;3.80;;;10.80;78.70;;;;;;4992212;28;20405;-79
2021/11/07 05:27:35;;;;;;;10.00;4.00;;;10.80;78.80;;;;;;4991881;28;20402;-78
2021/11/07 05:30:07;;;;;;;8.68;3.90;;;10.70;78.60;;;;;;4991483;28;20085;-78
2021/11/07 05:32:33;;;;;;;13.13;4.85;;;10.70;78.60;;;;;;4991836;28;20486;-77
2021/11/07 05:34:59;;;;;;;9.52;4.25;;;10.70;78.60;;;;;;4990685;28;20053;-78
2021/11/07 05:37:25;;;;;;;7.07;3.75;;;10.70;78.60;;;;;;4991780;28;20027;-78
2021/11/07 05:39:51;;;;;;;11.60;4.90;;;10.60;78.50;;;;;;4991810;28;20574;-78
2021/11/07 05:42:17;;;;;;;9.90;4.13;;;10.60;78.50;;;;;;4991795;28;20023;-76
2021/11/07 05:44:43;;;;;;;13.60;4.55;;;10.60;78.60;;;;;;4991611;28;20057;-76
2021/11/07 05:47:09;;;;;;;14.32;4.45;;;10.50;78.40;;;;;;4989483;28;20113;-76
2021/11/07 05:49:36;;;;;;;10.57;4.32;;;10.50;78.50;;;;;;4988051;28;20052;-77
2021/11/07 05:52:03;;;;;;;8.45;3.67;;;10.50;78.50;;;;;;4988301;28;20126;-77
2021/11/07 05:54:29;;;;;;;12.00;4.35;;;10.50;78.50;;;;;;4988570;28;20547;-76
2021/11/07 05:56:55;;;;;;;13.60;4.13;;;10.50;78.60;;;;;;4988483;28;20166;-77
2021/11/07 05:59:21;;;;;;;7.43;3.85;;;10.40;78.40;;;;;;5003422;28;20126;-76
2021/11/07 06:01:47;;;;;;;9.18;3.08;;;10.40;78.50;;;;;;5007568;28;20120;-76
2021/11/07 06:04:13;;;;;;;10.40;4.57;;;10.40;78.50;;;;;;4995419;28;20030;-76
2021/11/07 06:06:39;;;;;;;7.45;3.70;;;10.40;78.50;;;;;;4993417;28;20490;-76
2021/11/07 06:09:05;;;;;;;9.50;4.15;;;10.30;78.30;;;;;;4993632;28;20034;-76
2021/11/07 06:11:31;;;;;;;11.55;4.00;;;10.30;78.40;;;;;;4991860;28;20081;-77
2021/11/07 06:13:57;;;;;;;12.73;4.68;;;10.30;78.40;;;;;;4993662;28;20386;-77
2021/11/07 06:16:23;;;;;;;9.07;4.47;;;10.30;78.40;;;;;;4993210;28;20046;-77
2021/11/07 06:18:49;;;;;;;15.13;4.20;;;10.30;78.50;;;;;;5011525;28;20025;-77
2021/11/07 06:21:15;;;;;;;9.68;3.63;;;10.30;78.50;;;;;;5012980;28;20122;-77
2021/11/07 06:23:41;;;;;;;10.98;4.88;;;10.30;78.60;;;;;;4998053;28;20038;-77
2021/11/07 06:26:07;;;;;;;9.23;3.58;;;10.20;78.40;;;;;;4994087;28;20030;-77
2021/11/07 06:28:33;;;;;;;9.85;4.07;;;10.20;78.50;;;;;;4992715;28;20030;-77
2021/11/07 06:31:04;;;;;;;8.85;4.22;;;10.20;78.50;;;;;;4992921;28;20397;-78
2021/11/07 06:33:31;;;;;;;11.38;4.15;;;10.20;78.60;;;;;;4993325;28;20133;-77
2021/11/07 06:35:57;;;;;;;10.75;4.00;;;10.30;78.80;;;;;;4993110;28;20560;-76
2021/11/07 06:38:23;;;;;;;14.13;4.22;;;10.20;78.60;;;;;;5001557;28;20022;-76
2021/11/07 06:40:49;;;;;;;8.07;3.65;;;10.20;78.70;;;;;;5012841;28;20033;-76
2021/11/07 06:43:15;;;;;;;10.73;3.50;;;10.20;78.70;;;;;;5016415;28;20036;-78
2021/11/07 06:45:42;;;;;;;11.05;4.20;;;10.20;78.80;;;;;;4992021;28;20026;-77
2021/11/07 06:48:08;;;;;;;14.82;4.45;;;10.20;78.80;;;;;;4992909;28;20057;-77
2021/11/07 06:50:35;;;;;;;12.18;4.13;;;10.20;78.80;;;;;;4992731;28;20095;-76
2021/11/07 06:53:02;;;;;;;9.82;3.80;;;10.20;78.90;;;;;;5007638;28;20393;-77
2021/11/07 06:55:29;;;;;;;10.90;4.05;;;10.20;78.90;;;;;;4992570;28;20509;-77
2021/11/07 06:57:55;;;;;;;9.55;3.63;;;10.20;78.90;;;;;;5012416;28;20072;-77
2021/11/07 07:00:24;;;;;;;11.48;3.88;;;10.30;79.10;;;;;;5011771;28;20048;-76
2021/11/07 07:02:51;;;;;;;10.00;3.80;;;10.20;79.00;;;;;;5004974;28;20577;-77
2021/11/07 07:05:19;;;;;;;12.85;4.70;;;10.20;79.00;;;;;;4992878;28;20076;-75
2021/11/07 07:07:51;;;;;;;8.07;3.72;;;10.20;79.00;;;;;;4992260;28;20026;-76
2021/11/07 07:10:30;;;;;;;11.52;3.72;;;10.20;79.10;;;;;;4992626;28;20064;-76
2021/11/07 07:13:05;;;;;;;12.02;3.65;;;10.20;79.00;;;;;;4992205;28;20470;-76
2021/11/07 07:15:39;;;;;;;17.40;4.97;;;10.20;79.00;;;;;;4989366;28;20042;-76
2021/11/07 07:21:10;;;;;;;13.13;4.07;;;10.20;79.00;;;;;;4988266;28;20229;-77
2021/11/07 07:29:15;;;;;;;7.38;3.58;;;10.20;79.00;;;;;;4986971;28;20040;-77
2021/11/07 07:34:10;;;;;;;14.15;4.53;;;10.20;79.10;;;;;;4989883;28;20034;-78
2021/11/07 07:36:37;;;;;;;9.65;3.40;;;10.20;79.10;;;;;;5003368;28;20046;-77
2021/11/07 07:39:05;;;;;;;12.90;3.90;;;10.20;79.10;;;;;;4982313;28;20117;-78
2021/11/07 07:41:34;;;;;;;13.43;4.28;;;10.30;79.30;;;;;;4988478;28;20827;-79
2021/11/07 07:44:07;;;;;;;10.02;3.25;;;10.30;79.20;;;;;;4987715;28;20038;-78
2021/11/07 07:46:38;;;;;;;10.57;3.42;;;10.30;79.20;;;;;;4988650;28;20129;-78
2021/11/07 07:49:04;;;;;;;9.80;3.35;;;10.30;79.20;;;;;;4989296;28;20042;-78
2021/11/07 07:51:31;;;;;;;13.75;4.00;;;10.30;79.20;;;;;;4989121;28;20077;-80
2021/11/07 07:54:01;;;;;;;7.55;3.55;;;10.30;79.20;;;;;;5005778;28;20034;-86
2021/11/07 07:56:28;;;;;;;8.35;2.95;;;10.40;79.30;;;;;;5007253;28;20034;-79
2021/11/07 07:58:54;;;;;;;9.40;3.75;;;10.40;79.30;;;;;;4994997;28;20219;-80
2021/11/07 08:01:21;;;;;;;9.52;3.75;;;10.40;79.30;;;;;;4987121;28;20045;-79
2021/11/07 08:03:46;;;;;;;11.00;3.28;;;10.40;79.20;;;;;;5004093;28;20025;-80
2021/11/07 08:06:12;;;;;;;11.40;4.47;;;10.40;79.30;;;;;;5007806;28;20500;-80
2021/11/07 08:08:38;;;;;;;11.20;3.25;;;10.50;79.50;;;;;;5007920;28;20113;-80
2021/11/07 08:11:05;;;;;;;7.00;3.33;;;10.50;79.50;;;;;;5023687;28;20121;-79
2021/11/07 08:13:31;;;;;;;9.68;3.20;;;10.50;79.50;;;;;;4990951;28;20077;-81
2021/11/07 08:15:57;;;;;;;15.18;3.58;;;10.50;79.50;;;;;;4987051;28;20046;-80
2021/11/07 08:18:23;;;;;;;12.15;3.35;;;10.50;79.40;;;;;;4971255;28;20106;-80
2021/11/07 08:20:49;;;;;;;10.07;4.10;;;10.50;79.40;;;;;;4987636;28;20085;-79
2021/11/07 08:23:22;;;;;;;13.88;3.70;;;10.60;79.60;;;;;;4989195;28;20415;-80
2021/11/07 08:25:49;;;;;;;;;;;10.60;79.50;;;;;;4981207;28;20405;-81
2021/11/07 08:28:18;;;;;;;8.63;3.38;;;10.60;79.50;;;;;;4989147;28;19940;-83
2021/11/07 08:30:46;;;;;;;14.02;4.45;;;10.60;79.40;;;;;;5004463;28;20026;-82
2021/11/07 08:33:12;;;;;;;12.13;3.75;;;10.60;79.40;;;;;;5002903;28;20030;-82
2021/11/07 08:35:41;;;;;;;12.35;2.92;;;10.60;79.40;;;;;;4986887;28;20414;-82
2021/11/07 08:38:12;;;;;;;7.88;3.20;;;10.70;79.60;;;;;;4988001;28;20124;-81
2021/11/07 08:40:57;;;;;;;13.65;3.40;;;10.70;79.50;;;;;;5003489;28;20042;-82
2021/11/07 09:00:16;;;;;;;8.80;3.10;;;10.90;79.70;;;;;;4985696;28;20033;-81
2021/11/07 09:03:12;;;;;;;11.50;3.10;;;11.10;79.80;;;;;;5002519;28;20038;-81
2021/11/07 09:06:01;;;;;;;10.63;4.47;;;11.10;79.80;;;;;;4986700;28;20068;-81
2021/11/07 09:08:27;;;;;;;11.13;3.28;;;11.20;79.90;;;;;;4987428;28;20445;-80
2021/11/07 09:10:58;;;;;;;10.63;3.35;;;11.20;80.00;;;;;;4987350;28;20022;-82
2021/11/07 09:13:24;;;;;;;11.88;2.63;;;11.30;80.40;;;;;;4987734;28;20105;-81
2021/11/07 09:15:51;;;;;;;15.35;3.13;;;11.30;80.50;;;;;;4987410;28;20042;-81
2021/11/07 09:18:18;;;;;;;10.57;3.05;;;11.40;80.60;;;;;;4986240;28;20505;-84
2021/11/07 09:28:49;;;;;;;11.45;3.05;;;11.60;80.70;;;;;;4984243;28;20491;-84
2021/11/07 09:31:28;;;;;;;7.97;3.35;;;11.60;80.60;;;;;;4985256;28;20476;-85
2021/11/07 09:37:02;;;;;;;14.10;4.13;;;11.60;80.40;;;;;;4986927;28;20176;-84
2021/11/07 09:44:19;;;;;;;9.82;2.78;;;11.70;80.40;;;;;;4986053;28;20112;-81
2021/11/07 09:46:56;;;;;;;9.63;2.85;;;11.70;80.40;;;;;;4987650;28;20108;-85
2021/11/07 09:49:27;;;;;;;8.52;3.17;;;11.70;80.30;;;;;;5002620;28;20096;-87
2021/11/07 09:52:00;;;;;;;10.52;2.80;;;11.70;80.20;;;;;;5006735;28;20037;-83
2021/11/07 09:54:28;;;;;;;;;;;11.80;80.30;;;;;;5007538;28;20036;-82
2021/11/07 09:56:55;;;;;;;11.50;2.42;;;11.80;80.30;;;;;;4989880;28;19913;-83
2021/11/07 09:59:25;;;;;;;12.48;3.22;;;11.80;80.20;;;;;;4989364;28;20034;-82
2021/11/07 10:01:57;;;;;;;12.52;2.67;;;11.80;80.10;;;;;;4971014;28;20049;-83
2021/11/07 10:04:27;;;;;;;9.67;2.63;;;11.80;80.00;;;;;;4986818;28;20037;-84
2021/11/07 10:06:58;;;;;;;11.20;2.95;;;11.80;80.00;;;;;;4970120;28;20278;-83
2021/11/07 10:09:37;;;;;;;9.05;3.35;;;11.90;80.10;;;;;;4986689;28;20030;-84
2021/11/07 10:12:06;;;;;;;12.90;2.53;;;11.90;80.10;;;;;;5002557;28;20030;-89
2021/11/07 10:15:01;;;;;;;11.30;2.95;;;11.90;80.00;;;;;;4979338;28;20520;-87
2021/11/07 10:17:46;;;;;;;10.88;3.20;;;11.90;79.90;;;;;;4979044;28;20046;-85
2021/11/07 10:22:52;;;;;;;11.07;2.92;;;12.00;79.90;;;;;;4990921;28;20077;-84
2021/11/07 10:25:29;;;;;;;5.85;2.55;;;12.10;80.00;;;;;;4988187;28;20304;-84
2021/11/07 10:27:57;;;;;;;16.15;3.33;;;12.10;79.90;;;;;;4986034;28;20297;-82
2021/11/07 10:30:27;;;;;;;12.35;2.78;;;12.10;79.80;;;;;;4984415;28;20069;-82
2021/11/07 10:33:10;;;;;;;7.47;2.78;;;12.10;79.70;;;;;;4985545;28;20514;-81
2021/11/07 10:38:37;;;;;;;7.95;2.05;;;12.20;79.70;;;;;;4986131;28;20026;-80
2021/11/07 10:41:31;;;;;;;14.63;4.47;;;12.20;79.60;;;;;;4986964;28;20478;-82
2021/11/07 10:52:24;;;;;;;11.38;3.17;;;12.50;80.20;;;;;;4983579;28;20146;-88
2021/11/07 10:54:50;;;;;;;11.48;3.03;;;12.50;80.00;;;;;;4971281;28;20085;-89
2021/11/07 10:57:23;;;;;;;17.65;5.00;;;12.60;80.10;;;;;;4990429;28;20129;-90
2021/11/07 11:00:17;;;;;;;12.77;3.40;;;12.60;80.00;;;;;;5011040;28;20533;-86
2021/11/07 11:03:00;;;;;;;12.43;3.30;;;12.70;80.00;;;;;;5013058;28;20030;-87
2021/11/07 11:08:52;;;;;;;;;;;12.80;79.90;;;;;;5000134;28;20042;-84
2021/11/07 11:11:37;;;;;;;12.52;2.92;;;12.80;79.90;;;;;;4989870;28;19945;-87
2021/11/07 11:14:13;;;;;;;9.82;2.92;;;12.80;79.60;;;;;;5005492;28;20029;-86
2021/11/07 11:16:51;;;;;;;11.27;3.15;;;12.90;79.70;;;;;;5003131;28;20046;-86
2021/11/07 11:32:41;;;;;;;11.75;3.13;;;13.00;79.30;;;;;;4973685;28;20053;-87
2021/11/07 11:35:15;;;;;;;8.93;2.75;;;13.00;79.20;;;;;;4990067;28;20038;-83
2021/11/07 11:40:29;;;;;;;9.20;2.72;;;13.00;78.90;;;;;;4990445;28;20034;-84
2021/11/07 11:42:57;;;;;;;12.38;3.08;;;13.10;79.00;;;;;;4996059;28;20033;-86
2021/11/07 11:45:34;;;;;;;7.32;2.10;;;13.10;78.90;;;;;;5009235;28;20082;-82
2021/11/07 11:51:07;;;;;;;9.50;2.17;;;13.20;78.80;;;;;;4989253;28;20516;-78
2021/11/07 11:54:08;;;;;;;10.70;3.20;;;13.20;78.70;;;;;;4983637;28;20065;-82
2021/11/07 11:56:55;;;;;;;7.32;2.53;;;13.30;78.70;;;;;;4993501;28;20097;-82
2021/11/07 11:59:47;;;;;;;17.25;4.35;;;13.30;78.60;;;;;;4983181;28;20038;-85
2021/11/07 12:05:03;;;;;;;14.63;3.15;;;13.40;78.40;;;;;;5009248;28;20088;-85
2021/11/07 12:07:44;;;;;;;11.57;3.20;;;13.40;78.20;;;;;;5008542;28;20037;-87
2021/11/07 12:13:30;;;;;;;11.55;3.55;;;13.50;78.20;;;;;;4978358;28;20111;-89
2021/11/07 12:16:00;;;;;;;9.13;3.08;;;13.50;78.00;;;;;;4989905;28;20066;-81
2021/11/07 12:18:26;;;;;;;11.05;4.70;;;13.60;78.10;;;;;;4999780;28;20474;-80
2021/11/07 12:20:57;;;;;;;15.30;5.35;;;13.60;78.20;;;;;;4989581;28;20105;-82
2021/11/07 12:23:34;;;;;;;14.13;4.43;;;13.70;78.40;;;;;;4989223;28;20497;-82
2021/11/07 12:26:27;;;;;;;13.35;4.35;;;13.80;78.50;;;;;;4987701;28;20031;-82
2021/11/07 12:28:54;;;;;;;13.68;3.47;;;13.80;78.40;;;;;;4999630;28;20440;-83
2021/11/07 12:31:21;;;;;;;13.30;5.00;;;13.90;78.40;;;;;;4993691;28;20027;-83
2021/11/07 12:33:59;;;;;;;9.07;3.63;;;13.90;78.30;;;;;;4988591;28;20049;-83
2021/11/07 12:41:41;;;;;;;13.48;3.42;;;14.10;78.20;;;;;;4987999;28;20034;-82
2021/11/07 12:44:20;;;;;;;10.13;3.60;;;14.20;78.20;;;;;;4987921;28;20034;-81
2021/11/07 12:47:11;;;;;;;13.70;4.22;;;14.20;78.00;;;;;;4988675;28;20442;-80
2021/11/07 12:49:37;;;;;;;14.25;4.28;;;14.20;77.90;;;;;;4985698;28;20498;-81
2021/11/07 12:52:06;;;;;;;10.43;3.25;;;14.20;77.70;;;;;;4987505;28;20030;-83
2021/11/07 12:54:38;;;;;;;12.13;4.72;;;14.30;77.80;;;;;;4989073;28;20018;-83
2021/11/07 12:57:09;;;;;;;16.10;4.37;;;14.30;77.70;;;;;;4989873;28;20030;-81
2021/11/07 12:59:42;;;;;;;9.98;3.35;;;14.30;77.60;;;;;;5005773;28;20032;-86
2021/11/07 13:02:11;;;;;;;7.97;3.17;;;14.40;77.60;;;;;;5007318;28;20473;-82
2021/11/07 13:05:01;;;;;;;10.80;3.95;;;14.40;77.50;;;;;;4988584;28;20030;-83
2021/11/07 13:13:46;;;;;;;8.32;3.92;;;14.50;77.30;;;;;;4977332;28;20022;-80
2021/11/07 13:16:38;;;;;;;9.90;3.65;;;14.50;77.20;;;;;;4987349;28;20038;-79
2021/11/07 13:20:08;;;;;;;8.55;3.40;;;14.50;77.10;;;;;;4985682;28;20541;-81
2021/11/07 13:22:24;;;;;;;8.88;3.25;;;14.60;77.20;;;;;;4981168;28;20579;-80
2021/11/07 13:29:53;;;;;;;11.30;3.17;;;14.60;76.90;;;;;;4984668;28;20060;-81
2021/11/07 13:35:04;;;;;;;10.88;3.38;;;14.70;76.80;;;;;;4987544;28;20046;-83
2021/11/07 13:37:47;;;;;;;8.27;2.65;;;14.80;76.90;;;;;;4987733;28;20038;-86
2021/11/07 13:40:38;;;;;;;9.23;3.17;;;14.80;76.80;;;;;;4967907;28;20113;-83
2021/11/07 13:43:14;;;;;;;10.10;2.85;;;14.80;76.80;;;;;;4975247;28;20030;-84
2021/11/07 13:45:43;;;;;;;8.20;2.75;;;14.80;76.70;;;;;;4985567;28;20034;-84
2021/11/07 13:48:21;;;;;;;10.45;3.58;;;14.80;76.60;;;;;;4992805;28;20026;-82
2021/11/07 13:50:48;;;;;;;7.85;2.30;;;14.90;76.80;;;;;;5006228;28;20049;-80
2021/11/07 13:53:22;;;;;;;8.85;2.92;;;14.90;76.80;;;;;;4997734;28;20026;-81
2021/11/07 13:55:51;;;;;;;10.05;2.90;;;14.80;76.40;;;;;;4987852;28;20042;-81
2021/11/07 13:58:20;;;;;;;9.55;3.03;;;14.90;76.60;;;;;;4987434;28;20049;-82
2021/11/07 14:00:48;;;;;;;9.23;2.78;;;14.90;76.60;;;;;;4987267;28;20045;-82
2021/11/07 14:03:19;;;;;;;9.13;2.95;;;14.80;76.40;;;;;;4985667;28;20026;-81
2021/11/07 14:06:14;;;;;;;11.00;3.03;;;14.90;76.50;;;;;;4987460;28;20393;-81
2021/11/07 14:08:48;;;;;;;9.40;3.10;;;14.90;76.40;;;;;;4975392;28;20069;-80
2021/11/07 14:11:17;;;;;;;7.13;3.40;;;14.90;76.40;;;;;;4987346;28;20089;-81
2021/11/07 14:13:53;;;;;;;7.22;2.40;;;14.90;76.30;;;;;;4998730;28;20052;-81
2021/11/07 14:16:48;;;;;;;8.77;2.92;;;14.90;76.20;;;;;;4986799;28;20101;-79
2021/11/07 14:19:16;;;;;;;8.15;2.22;;;14.90;76.10;;;;;;5000159;28;20319;-79
2021/11/07 14:21:50;;;;;;;7.25;2.72;;;14.90;76.10;;;;;;5005009;28;20022;-78
2021/11/07 14:24:22;;;;;;;10.18;2.50;;;14.90;76.00;;;;;;4989449;28;20045;-81
2021/11/07 14:27:06;;;;;;;11.55;2.97;;;15.00;76.20;;;;;;5005072;28;20490;-81
2021/11/07 14:32:18;;;;;;;4.35;1.88;;;15.00;76.00;;;;;;5009524;28;20435;-79
2021/11/07 14:35:16;;;;;;;6.68;2.60;;;15.00;76.00;;;;;;4990206;28;20109;-78
2021/11/07 14:37:51;;;;;;;8.13;3.25;;;14.90;75.80;;;;;;4988284;28;20140;-80
2021/11/07 14:43:25;;;;;;;13.52;5.15;;;14.90;75.80;;;;;;4989413;28;20026;-78
2021/11/07 14:46:15;;;;;;;16.95;4.53;;;14.90;75.80;;;;;;4990262;28;20043;-78
2021/11/07 14:48:54;;;;;;;12.70;4.80;;;14.90;75.80;;;;;;4977965;28;20038;-80
2021/11/07 14:56:45;;;;;;;14.75;5.18;;;14.90;75.70;;;;;;5003292;28;20485;-81
2021/11/07 15:05:02;;;;;;;14.43;3.72;;;14.80;75.50;;;;;;4997449;28;20030;-79
2021/11/07 15:07:55;;;;;;;14.68;5.07;;;14.70;75.40;;;;;;5002084;28;20034;-80
2021/11/07 15:13:09;;;;;;;19.23;6.70;;;14.70;75.40;;;;;;4994229;28;20048;-79
2021/11/07 15:15:54;;;;;;;17.40;5.32;;;14.70;75.50;;;;;;5009148;28;20041;-81
2021/11/07 15:21:19;;;;;;;19.13;4.90;;;14.60;75.30;;;;;;4989592;28;20027;-77
2021/11/07 15:23:42;;;;;;;30.15;7.90;;;14.60;75.40;;;;;;4987378;28;20270;-80
2021/11/07 15:26:14;;;;;;;32.70;9.70;;;14.60;75.50;;;;;;4987027;28;20031;-83
2021/11/07 15:28:40;;;;;;;25.25;7.43;;;14.60;75.70;;;;;;4988586;28;20038;-79
2021/11/07 15:31:16;;;;;;;21.83;7.43;;;14.70;76.00;;;;;;5003729;28;20034;-78
2021/11/07 15:33:46;;;;;;;30.58;8.27;;;14.80;76.20;;;;;;4986896;28;20478;-78
2021/11/07 15:36:12;;;;;;;27.70;7.28;;;14.80;76.10;;;;;;4987489;28;20057;-78